sensor_id;sensor_type;location;lat;lon;timestamp;pressure;altitude;pressure_sealevel;temperature
64916;BMP280;51427;-27.442;153.014;2022-11-20T00:01:20;100487.31;;;30.07
64916;BMP280;51427;-27.442;153.014;2022-11-20T00:03:48;100483.63;;;30.08
64916;BMP280;51427;-27.442;153.014;2022-11-20T00:06:18;100483.03;;;30.06
64916;BMP280;51427;-27.442;153.014;2022-11-20T00:08:46;100480.94;;;30.08
64916;BMP280;51427;-27.442;153.014;2022-11-20T00:11:16;100474.22;;;29.81
64916;BMP280;51427;-27.442;153.014;2022-11-20T00:13:46;100472.41;;;29.99
64916;BMP280;51427;-27.442;153.014;2022-11-20T00:16:16;100473.69;;;30.50
64916;BMP280;51427;-27.442;153.014;2022-11-20T00:18:44;100471.28;;;30.42
64916;BMP280;51427;-27.442;153.014;2022-11-20T00:21:14;100468.75;;;30.29
64916;BMP280;51427;-27.442;153.014;2022-11-20T00:23:43;100467.28;;;30.16
64916;BMP280;51427;-27.442;153.014;2022-11-20T00:26:13;100454.53;;;30.00
64916;BMP280;51427;-27.442;153.014;2022-11-20T00:28:42;100458.47;;;29.73
64916;BMP280;51427;-27.442;153.014;2022-11-20T00:31:14;100453.66;;;30.06
64916;BMP280;51427;-27.442;153.014;2022-11-20T00:33:43;100447.69;;;30.22
64916;BMP280;51427;-27.442;153.014;2022-11-20T00:36:16;100437.00;;;30.04
64916;BMP280;51427;-27.442;153.014;2022-11-20T00:38:44;100437.66;;;29.99
64916;BMP280;51427;-27.442;153.014;2022-11-20T00:41:14;100423.66;;;30.39
64916;BMP280;51427;-27.442;153.014;2022-11-20T00:43:42;100417.50;;;31.09
64916;BMP280;51427;-27.442;153.014;2022-11-20T00:46:14;100404.88;;;30.86
64916;BMP280;51427;-27.442;153.014;2022-11-20T00:48:42;100399.94;;;31.35
64916;BMP280;51427;-27.442;153.014;2022-11-20T00:51:12;100405.38;;;31.06
64916;BMP280;51427;-27.442;153.014;2022-11-20T00:53:40;100406.56;;;31.21
64916;BMP280;51427;-27.442;153.014;2022-11-20T00:56:14;100384.72;;;31.47
64916;BMP280;51427;-27.442;153.014;2022-11-20T00:58:43;100380.16;;;31.59
64916;BMP280;51427;-27.442;153.014;2022-11-20T01:01:14;100372.19;;;31.87
64916;BMP280;51427;-27.442;153.014;2022-11-20T01:03:44;100366.09;;;31.41
64916;BMP280;51427;-27.442;153.014;2022-11-20T01:08:42;100355.88;;;32.27
64916;BMP280;51427;-27.442;153.014;2022-11-20T01:11:16;100346.88;;;32.61
64916;BMP280;51427;-27.442;153.014;2022-11-20T01:13:45;100351.00;;;31.97
64916;BMP280;51427;-27.442;153.014;2022-11-20T01:16:21;100340.81;;;32.10
64916;BMP280;51427;-27.442;153.014;2022-11-20T01:18:52;100336.25;;;32.38
64916;BMP280;51427;-27.442;153.014;2022-11-20T01:21:25;100329.66;;;32.29
64916;BMP280;51427;-27.442;153.014;2022-11-20T01:23:53;100331.22;;;31.86
64916;BMP280;51427;-27.442;153.014;2022-11-20T01:26:26;100319.59;;;32.09
64916;BMP280;51427;-27.442;153.014;2022-11-20T01:28:55;100313.16;;;32.65
64916;BMP280;51427;-27.442;153.014;2022-11-20T01:31:25;100304.41;;;33.02
64916;BMP280;51427;-27.442;153.014;2022-11-20T01:33:55;100299.00;;;33.18
64916;BMP280;51427;-27.442;153.014;2022-11-20T01:36:25;100298.28;;;32.90
64916;BMP280;51427;-27.442;153.014;2022-11-20T01:38:54;100303.84;;;33.38
64916;BMP280;51427;-27.442;153.014;2022-11-20T01:41:24;100298.66;;;33.31
64916;BMP280;51427;-27.442;153.014;2022-11-20T01:44:12;100283.00;;;33.07
64916;BMP280;51427;-27.442;153.014;2022-11-20T01:47:06;100279.69;;;33.00
64916;BMP280;51427;-27.442;153.014;2022-11-20T01:49:57;100279.25;;;33.67
64916;BMP280;51427;-27.442;153.014;2022-11-20T01:52:49;100276.91;;;33.49
64916;BMP280;51427;-27.442;153.014;2022-11-20T01:55:36;100275.88;;;33.34
64916;BMP280;51427;-27.442;153.014;2022-11-20T01:58:07;100271.69;;;33.85
64916;BMP280;51427;-27.442;153.014;2022-11-20T02:00:35;100275.47;;;33.25
64916;BMP280;51427;-27.442;153.014;2022-11-20T02:03:09;100258.22;;;33.59
64916;BMP280;51427;-27.442;153.014;2022-11-20T02:08:19;100264.47;;;33.64
64916;BMP280;51427;-27.442;153.014;2022-11-20T02:10:47;100261.38;;;33.99
64916;BMP280;51427;-27.442;153.014;2022-11-20T02:13:15;100262.81;;;33.85
64916;BMP280;51427;-27.442;153.014;2022-11-20T02:16:01;100259.31;;;34.63
64916;BMP280;51427;-27.442;153.014;2022-11-20T02:18:30;100257.59;;;35.24
64916;BMP280;51427;-27.442;153.014;2022-11-20T02:21:14;100256.75;;;35.65
64916;BMP280;51427;-27.442;153.014;2022-11-20T02:26:25;100248.72;;;35.80
64916;BMP280;51427;-27.442;153.014;2022-11-20T02:28:55;100252.44;;;34.41
64916;BMP280;51427;-27.442;153.014;2022-11-20T02:31:22;100250.59;;;35.79
64916;BMP280;51427;-27.442;153.014;2022-11-20T02:33:59;100243.38;;;35.90
64916;BMP280;51427;-27.442;153.014;2022-11-20T02:36:27;100237.75;;;35.35
64916;BMP280;51427;-27.442;153.014;2022-11-20T02:38:56;100246.59;;;35.82
64916;BMP280;51427;-27.442;153.014;2022-11-20T02:41:32;100241.59;;;36.44
64916;BMP280;51427;-27.442;153.014;2022-11-20T02:43:59;100230.47;;;36.95
64916;BMP280;51427;-27.442;153.014;2022-11-20T02:46:27;100223.16;;;36.07
64916;BMP280;51427;-27.442;153.014;2022-11-20T02:48:55;100225.56;;;35.89
64916;BMP280;51427;-27.442;153.014;2022-11-20T02:51:23;100213.19;;;35.97
64916;BMP280;51427;-27.442;153.014;2022-11-20T02:53:51;100206.16;;;35.87
64916;BMP280;51427;-27.442;153.014;2022-11-20T02:56:18;100205.13;;;36.12
64916;BMP280;51427;-27.442;153.014;2022-11-20T02:58:46;100197.84;;;36.08
64916;BMP280;51427;-27.442;153.014;2022-11-20T03:01:14;100192.97;;;36.00
64916;BMP280;51427;-27.442;153.014;2022-11-20T03:03:42;100195.59;;;35.75
64916;BMP280;51427;-27.442;153.014;2022-11-20T03:06:09;100192.69;;;36.11
64916;BMP280;51427;-27.442;153.014;2022-11-20T03:08:37;100194.59;;;35.25
64916;BMP280;51427;-27.442;153.014;2022-11-20T03:11:06;100198.19;;;35.45
64916;BMP280;51427;-27.442;153.014;2022-11-20T03:13:35;100190.78;;;35.87
64916;BMP280;51427;-27.442;153.014;2022-11-20T03:16:08;100185.13;;;35.13
64916;BMP280;51427;-27.442;153.014;2022-11-20T03:18:35;100183.94;;;35.55
64916;BMP280;51427;-27.442;153.014;2022-11-20T03:21:03;100169.78;;;36.24
64916;BMP280;51427;-27.442;153.014;2022-11-20T03:23:32;100167.50;;;35.42
64916;BMP280;51427;-27.442;153.014;2022-11-20T03:26:17;100160.19;;;35.37
64916;BMP280;51427;-27.442;153.014;2022-11-20T03:28:51;100153.28;;;35.76
64916;BMP280;51427;-27.442;153.014;2022-11-20T03:31:21;100151.72;;;35.90
64916;BMP280;51427;-27.442;153.014;2022-11-20T03:33:49;100145.56;;;35.23
64916;BMP280;51427;-27.442;153.014;2022-11-20T03:36:18;100139.34;;;36.38
64916;BMP280;51427;-27.442;153.014;2022-11-20T03:38:46;100145.78;;;36.42
64916;BMP280;51427;-27.442;153.014;2022-11-20T03:41:17;100134.44;;;36.45
64916;BMP280;51427;-27.442;153.014;2022-11-20T03:43:51;100128.75;;;34.97
64916;BMP280;51427;-27.442;153.014;2022-11-20T03:46:20;100122.91;;;35.14
64916;BMP280;51427;-27.442;153.014;2022-11-20T03:48:48;100106.09;;;35.73
64916;BMP280;51427;-27.442;153.014;2022-11-20T03:51:19;100098.53;;;35.60
64916;BMP280;51427;-27.442;153.014;2022-11-20T03:53:48;100098.84;;;35.79
64916;BMP280;51427;-27.442;153.014;2022-11-20T03:56:17;100102.28;;;36.78
64916;BMP280;51427;-27.442;153.014;2022-11-20T03:58:45;100091.31;;;36.25
64916;BMP280;51427;-27.442;153.014;2022-11-20T04:01:17;100096.84;;;36.83
64916;BMP280;51427;-27.442;153.014;2022-11-20T04:03:46;100090.00;;;37.10
64916;BMP280;51427;-27.442;153.014;2022-11-20T04:06:25;100092.16;;;37.08
64916;BMP280;51427;-27.442;153.014;2022-11-20T04:08:57;100089.00;;;36.87
64916;BMP280;51427;-27.442;153.014;2022-11-20T04:11:28;100091.06;;;37.95
64916;BMP280;51427;-27.442;153.014;2022-11-20T04:14:00;100070.59;;;37.51
64916;BMP280;51427;-27.442;153.014;2022-11-20T04:16:30;100049.97;;;37.65
64916;BMP280;51427;-27.442;153.014;2022-11-20T04:19:00;100048.44;;;37.01
64916;BMP280;51427;-27.442;153.014;2022-11-20T04:21:28;100045.72;;;36.34
64916;BMP280;51427;-27.442;153.014;2022-11-20T04:23:57;100043.09;;;36.87
64916;BMP280;51427;-27.442;153.014;2022-11-20T04:26:26;100048.41;;;37.16
64916;BMP280;51427;-27.442;153.014;2022-11-20T04:28:54;100046.34;;;36.84
64916;BMP280;51427;-27.442;153.014;2022-11-20T04:31:28;100034.75;;;37.36
64916;BMP280;51427;-27.442;153.014;2022-11-20T04:33:58;100023.69;;;37.33
64916;BMP280;51427;-27.442;153.014;2022-11-20T04:36:27;100017.75;;;37.69
64916;BMP280;51427;-27.442;153.014;2022-11-20T04:39:00;100039.38;;;36.73
64916;BMP280;51427;-27.442;153.014;2022-11-20T04:41:35;100039.19;;;37.22
64916;BMP280;51427;-27.442;153.014;2022-11-20T04:44:04;100026.09;;;37.34
64916;BMP280;51427;-27.442;153.014;2022-11-20T04:46:42;100017.91;;;37.49
64916;BMP280;51427;-27.442;153.014;2022-11-20T04:49:11;100009.59;;;38.07
64916;BMP280;51427;-27.442;153.014;2022-11-20T04:51:38;100010.47;;;37.97
64916;BMP280;51427;-27.442;153.014;2022-11-20T04:54:06;100020.56;;;38.15
64916;BMP280;51427;-27.442;153.014;2022-11-20T04:56:33;100014.25;;;37.68
64916;BMP280;51427;-27.442;153.014;2022-11-20T04:59:02;100007.97;;;37.78
64916;BMP280;51427;-27.442;153.014;2022-11-20T05:01:30;99995.16;;;38.16
64916;BMP280;51427;-27.442;153.014;2022-11-20T05:03:57;99999.47;;;37.13
64916;BMP280;51427;-27.442;153.014;2022-11-20T05:06:25;99983.97;;;37.33
64916;BMP280;51427;-27.442;153.014;2022-11-20T05:08:53;99993.38;;;36.30
64916;BMP280;51427;-27.442;153.014;2022-11-20T05:11:21;99990.59;;;37.83
64916;BMP280;51427;-27.442;153.014;2022-11-20T05:13:50;99975.72;;;37.53
64916;BMP280;51427;-27.442;153.014;2022-11-20T05:16:20;99979.63;;;38.27
64916;BMP280;51427;-27.442;153.014;2022-11-20T05:18:48;99977.31;;;37.87
64916;BMP280;51427;-27.442;153.014;2022-11-20T05:21:17;99972.03;;;38.70
64916;BMP280;51427;-27.442;153.014;2022-11-20T05:23:45;99974.50;;;38.25
64916;BMP280;51427;-27.442;153.014;2022-11-20T05:26:18;99966.16;;;37.93
64916;BMP280;51427;-27.442;153.014;2022-11-20T05:28:46;99965.66;;;36.77
64916;BMP280;51427;-27.442;153.014;2022-11-20T05:31:16;99961.88;;;36.83
64916;BMP280;51427;-27.442;153.014;2022-11-20T05:33:45;99961.41;;;37.47
64916;BMP280;51427;-27.442;153.014;2022-11-20T05:36:14;99969.13;;;36.88
64916;BMP280;51427;-27.442;153.014;2022-11-20T05:38:42;99971.25;;;36.33
64916;BMP280;51427;-27.442;153.014;2022-11-20T05:41:18;99952.09;;;36.19
64916;BMP280;51427;-27.442;153.014;2022-11-20T05:43:47;99955.03;;;36.38
64916;BMP280;51427;-27.442;153.014;2022-11-20T05:46:17;99949.47;;;36.04
64916;BMP280;51427;-27.442;153.014;2022-11-20T05:48:46;99954.88;;;35.90
64916;BMP280;51427;-27.442;153.014;2022-11-20T05:51:16;99938.09;;;36.27
64916;BMP280;51427;-27.442;153.014;2022-11-20T05:53:45;99929.84;;;35.69
64916;BMP280;51427;-27.442;153.014;2022-11-20T05:56:15;99927.25;;;36.37
64916;BMP280;51427;-27.442;153.014;2022-11-20T05:58:44;99933.63;;;35.48
64916;BMP280;51427;-27.442;153.014;2022-11-20T06:01:17;99933.19;;;36.34
64916;BMP280;51427;-27.442;153.014;2022-11-20T06:03:45;99921.19;;;35.87
64916;BMP280;51427;-27.442;153.014;2022-11-20T06:06:15;99916.75;;;36.21
64916;BMP280;51427;-27.442;153.014;2022-11-20T06:08:43;99914.66;;;36.08
64916;BMP280;51427;-27.442;153.014;2022-11-20T06:11:13;99892.69;;;35.46
64916;BMP280;51427;-27.442;153.014;2022-11-20T06:13:41;99907.72;;;34.98
64916;BMP280;51427;-27.442;153.014;2022-11-20T06:16:10;99911.56;;;34.31
64916;BMP280;51427;-27.442;153.014;2022-11-20T06:18:38;99910.09;;;34.80
64916;BMP280;51427;-27.442;153.014;2022-11-20T06:21:12;99901.53;;;34.17
64916;BMP280;51427;-27.442;153.014;2022-11-20T06:23:40;99921.31;;;34.42
64916;BMP280;51427;-27.442;153.014;2022-11-20T06:26:10;99909.63;;;34.97
64916;BMP280;51427;-27.442;153.014;2022-11-20T06:28:38;99932.25;;;33.85
64916;BMP280;51427;-27.442;153.014;2022-11-20T06:31:07;99939.34;;;34.01
64916;BMP280;51427;-27.442;153.014;2022-11-20T06:33:35;99938.72;;;35.85
64916;BMP280;51427;-27.442;153.014;2022-11-20T06:36:04;99959.91;;;34.21
64916;BMP280;51427;-27.442;153.014;2022-11-20T06:38:32;99971.19;;;33.20
64916;BMP280;51427;-27.442;153.014;2022-11-20T06:40:59;99988.56;;;33.70
64916;BMP280;51427;-27.442;153.014;2022-11-20T06:43:29;100035.59;;;33.15
64916;BMP280;51427;-27.442;153.014;2022-11-20T06:45:58;100184.34;;;31.72
64916;BMP280;51427;-27.442;153.014;2022-11-20T06:48:29;100276.31;;;30.70
64916;BMP280;51427;-27.442;153.014;2022-11-20T06:50:57;100107.28;;;27.30
64916;BMP280;51427;-27.442;153.014;2022-11-20T06:53:25;100188.53;;;30.26
64916;BMP280;51427;-27.442;153.014;2022-11-20T06:55:56;100125.09;;;26.73
64916;BMP280;51427;-27.442;153.014;2022-11-20T06:58:28;100112.25;;;26.18
64916;BMP280;51427;-27.442;153.014;2022-11-20T07:01:06;100115.72;;;27.64
64916;BMP280;51427;-27.442;153.014;2022-11-20T07:03:34;100155.31;;;28.39
64916;BMP280;51427;-27.442;153.014;2022-11-20T07:06:02;100142.38;;;27.14
64916;BMP280;51427;-27.442;153.014;2022-11-20T07:08:30;100139.38;;;28.57
64916;BMP280;51427;-27.442;153.014;2022-11-20T07:11:00;100112.41;;;27.68
64916;BMP280;51427;-27.442;153.014;2022-11-20T07:13:29;100098.81;;;26.33
64916;BMP280;51427;-27.442;153.014;2022-11-20T07:16:01;100115.59;;;28.07
64916;BMP280;51427;-27.442;153.014;2022-11-20T07:18:29;100128.91;;;28.38
64916;BMP280;51427;-27.442;153.014;2022-11-20T07:21:01;100122.44;;;27.97
64916;BMP280;51427;-27.442;153.014;2022-11-20T07:23:28;100110.94;;;28.51
64916;BMP280;51427;-27.442;153.014;2022-11-20T07:25:56;100121.59;;;29.40
64916;BMP280;51427;-27.442;153.014;2022-11-20T07:28:24;100110.28;;;29.85
64916;BMP280;51427;-27.442;153.014;2022-11-20T07:30:52;100113.19;;;29.55
64916;BMP280;51427;-27.442;153.014;2022-11-20T07:33:20;100129.06;;;28.19
64916;BMP280;51427;-27.442;153.014;2022-11-20T07:35:48;100121.75;;;29.27
64916;BMP280;51427;-27.442;153.014;2022-11-20T07:38:16;100121.19;;;28.72
64916;BMP280;51427;-27.442;153.014;2022-11-20T07:40:43;100117.94;;;28.46
64916;BMP280;51427;-27.442;153.014;2022-11-20T07:43:11;100119.41;;;28.84
64916;BMP280;51427;-27.442;153.014;2022-11-20T07:45:38;100120.88;;;29.16
64916;BMP280;51427;-27.442;153.014;2022-11-20T07:48:06;100118.84;;;29.47
64916;BMP280;51427;-27.442;153.014;2022-11-20T07:50:34;100119.25;;;29.91
64916;BMP280;51427;-27.442;153.014;2022-11-20T07:53:05;100126.03;;;30.27
64916;BMP280;51427;-27.442;153.014;2022-11-20T07:55:33;100128.75;;;29.87
64916;BMP280;51427;-27.442;153.014;2022-11-20T07:58:00;100146.88;;;29.38
64916;BMP280;51427;-27.442;153.014;2022-11-20T08:00:28;100164.91;;;29.42
64916;BMP280;51427;-27.442;153.014;2022-11-20T08:02:56;100172.47;;;29.27
64916;BMP280;51427;-27.442;153.014;2022-11-20T08:05:23;100180.13;;;28.40
64916;BMP280;51427;-27.442;153.014;2022-11-20T08:07:52;100174.13;;;29.28
64916;BMP280;51427;-27.442;153.014;2022-11-20T08:10:19;100188.66;;;28.48
64916;BMP280;51427;-27.442;153.014;2022-11-20T08:12:49;100199.19;;;28.85
64916;BMP280;51427;-27.442;153.014;2022-11-20T08:15:35;100214.69;;;28.95
64916;BMP280;51427;-27.442;153.014;2022-11-20T08:18:07;100212.66;;;28.48
64916;BMP280;51427;-27.442;153.014;2022-11-20T08:20:35;100214.13;;;27.83
64916;BMP280;51427;-27.442;153.014;2022-11-20T08:23:05;100217.84;;;27.76
64916;BMP280;51427;-27.442;153.014;2022-11-20T08:25:35;100219.94;;;27.11
64916;BMP280;51427;-27.442;153.014;2022-11-20T08:28:05;100235.56;;;27.44
64916;BMP280;51427;-27.442;153.014;2022-11-20T08:30:34;100260.81;;;27.79
64916;BMP280;51427;-27.442;153.014;2022-11-20T08:33:07;100261.66;;;28.47
64916;BMP280;51427;-27.442;153.014;2022-11-20T08:35:38;100255.69;;;27.28
64916;BMP280;51427;-27.442;153.014;2022-11-20T08:38:08;100257.56;;;27.77
64916;BMP280;51427;-27.442;153.014;2022-11-20T08:40:36;100274.13;;;27.16
64916;BMP280;51427;-27.442;153.014;2022-11-20T08:43:03;100283.38;;;26.88
64916;BMP280;51427;-27.442;153.014;2022-11-20T08:45:31;100277.38;;;27.31
64916;BMP280;51427;-27.442;153.014;2022-11-20T08:48:02;100291.66;;;27.43
64916;BMP280;51427;-27.442;153.014;2022-11-20T08:50:30;100274.28;;;28.58
64916;BMP280;51427;-27.442;153.014;2022-11-20T08:53:07;100293.41;;;29.04
64916;BMP280;51427;-27.442;153.014;2022-11-20T08:55:34;100297.75;;;28.19
64916;BMP280;51427;-27.442;153.014;2022-11-20T08:58:07;100294.13;;;28.01
64916;BMP280;51427;-27.442;153.014;2022-11-20T09:00:34;100294.59;;;28.29
64916;BMP280;51427;-27.442;153.014;2022-11-20T09:03:02;100296.75;;;28.14
64916;BMP280;51427;-27.442;153.014;2022-11-20T09:05:30;100306.22;;;28.10
64916;BMP280;51427;-27.442;153.014;2022-11-20T09:08:00;100344.28;;;28.17
64916;BMP280;51427;-27.442;153.014;2022-11-20T09:10:28;100356.91;;;27.84
64916;BMP280;51427;-27.442;153.014;2022-11-20T09:12:56;100381.31;;;27.62
64916;BMP280;51427;-27.442;153.014;2022-11-20T09:15:25;100412.72;;;26.43
64916;BMP280;51427;-27.442;153.014;2022-11-20T09:17:53;100391.56;;;27.45
64916;BMP280;51427;-27.442;153.014;2022-11-20T09:20:21;100381.31;;;27.68
64916;BMP280;51427;-27.442;153.014;2022-11-20T09:22:49;100374.16;;;27.30
64916;BMP280;51427;-27.442;153.014;2022-11-20T09:25:17;100382.59;;;27.27
64916;BMP280;51427;-27.442;153.014;2022-11-20T09:27:45;100373.97;;;27.57
64916;BMP280;51427;-27.442;153.014;2022-11-20T09:30:14;100379.72;;;27.35
64916;BMP280;51427;-27.442;153.014;2022-11-20T09:32:42;100369.59;;;27.88
64916;BMP280;51427;-27.442;153.014;2022-11-20T09:35:10;100371.38;;;28.01
64916;BMP280;51427;-27.442;153.014;2022-11-20T09:37:38;100379.88;;;28.29
64916;BMP280;51427;-27.442;153.014;2022-11-20T09:40:09;100370.22;;;27.84
64916;BMP280;51427;-27.442;153.014;2022-11-20T09:48:33;100367.56;;;27.71
64916;BMP280;51427;-27.442;153.014;2022-11-20T09:56:42;100368.19;;;28.60
64916;BMP280;51427;-27.442;153.014;2022-11-20T10:02:43;100373.50;;;28.73
64916;BMP280;51427;-27.442;153.014;2022-11-20T10:08:11;100385.94;;;28.48
64916;BMP280;51427;-27.442;153.014;2022-11-20T10:11:17;100394.19;;;27.84
64916;BMP280;51427;-27.442;153.014;2022-11-20T10:19:14;100397.59;;;28.84
64916;BMP280;51427;-27.442;153.014;2022-11-20T10:25:22;100402.09;;;29.15
64916;BMP280;51427;-27.442;153.014;2022-11-20T10:30:19;100412.13;;;29.43
64916;BMP280;51427;-27.442;153.014;2022-11-20T10:33:13;100406.94;;;29.48
64916;BMP280;51427;-27.442;153.014;2022-11-20T10:38:45;100395.34;;;29.96
64916;BMP280;51427;-27.442;153.014;2022-11-20T10:41:40;100401.53;;;29.97
64916;BMP280;51427;-27.442;153.014;2022-11-20T10:44:21;100405.53;;;30.06
64916;BMP280;51427;-27.442;153.014;2022-11-20T10:47:17;100417.03;;;29.64
64916;BMP280;51427;-27.442;153.014;2022-11-20T10:49:49;100411.44;;;28.99
64916;BMP280;51427;-27.442;153.014;2022-11-20T10:55:39;100418.69;;;27.99
64916;BMP280;51427;-27.442;153.014;2022-11-20T11:00:42;100423.94;;;27.55
64916;BMP280;51427;-27.442;153.014;2022-11-20T11:03:30;100427.94;;;28.53
64916;BMP280;51427;-27.442;153.014;2022-11-20T11:08:31;100439.41;;;28.10
64916;BMP280;51427;-27.442;153.014;2022-11-20T11:11:22;100435.81;;;27.66
64916;BMP280;51427;-27.442;153.014;2022-11-20T11:13:50;100444.13;;;28.08
64916;BMP280;51427;-27.442;153.014;2022-11-20T11:16:26;100445.84;;;28.39
64916;BMP280;51427;-27.442;153.014;2022-11-20T11:19:11;100447.41;;;27.97
64916;BMP280;51427;-27.442;153.014;2022-11-20T11:21:54;100458.84;;;28.17
64916;BMP280;51427;-27.442;153.014;2022-11-20T11:24:24;100455.78;;;28.00
64916;BMP280;51427;-27.442;153.014;2022-11-20T11:27:03;100446.50;;;29.03
64916;BMP280;51427;-27.442;153.014;2022-11-20T11:29:37;100454.63;;;28.90
64916;BMP280;51427;-27.442;153.014;2022-11-20T11:32:13;100460.97;;;29.20
64916;BMP280;51427;-27.442;153.014;2022-11-20T11:34:41;100474.47;;;29.55
64916;BMP280;51427;-27.442;153.014;2022-11-20T11:37:20;100475.56;;;29.48
64916;BMP280;51427;-27.442;153.014;2022-11-20T11:39:49;100471.25;;;29.23
64916;BMP280;51427;-27.442;153.014;2022-11-20T11:42:18;100481.19;;;28.16
64916;BMP280;51427;-27.442;153.014;2022-11-20T11:44:48;100483.91;;;27.77
64916;BMP280;51427;-27.442;153.014;2022-11-20T11:47:55;100491.44;;;28.06
64916;BMP280;51427;-27.442;153.014;2022-11-20T11:50:22;100489.69;;;28.43
64916;BMP280;51427;-27.442;153.014;2022-11-20T11:53:13;100484.31;;;27.74
64916;BMP280;51427;-27.442;153.014;2022-11-20T12:01:00;100475.81;;;28.29
64916;BMP280;51427;-27.442;153.014;2022-11-20T12:03:35;100470.34;;;28.67
64916;BMP280;51427;-27.442;153.014;2022-11-20T12:06:16;100471.47;;;28.84
64916;BMP280;51427;-27.442;153.014;2022-11-20T12:08:57;100478.03;;;28.88
64916;BMP280;51427;-27.442;153.014;2022-11-20T12:16:38;100469.00;;;29.44
64916;BMP280;51427;-27.442;153.014;2022-11-20T12:19:13;100457.91;;;29.47
64916;BMP280;51427;-27.442;153.014;2022-11-20T12:22:02;100468.34;;;29.24
64916;BMP280;51427;-27.442;153.014;2022-11-20T12:30:12;100471.28;;;28.42
64916;BMP280;51427;-27.442;153.014;2022-11-20T12:35:42;100484.59;;;28.35
64916;BMP280;51427;-27.442;153.014;2022-11-20T12:44:45;100471.63;;;29.50
64916;BMP280;51427;-27.442;153.014;2022-11-20T12:53:28;100480.38;;;27.96
64916;BMP280;51427;-27.442;153.014;2022-11-20T12:56:21;100487.13;;;28.18
64916;BMP280;51427;-27.442;153.014;2022-11-20T13:04:46;100477.09;;;28.07
64916;BMP280;51427;-27.442;153.014;2022-11-20T13:07:13;100477.19;;;28.44
64916;BMP280;51427;-27.442;153.014;2022-11-20T13:09:49;100474.56;;;28.37
64916;BMP280;51427;-27.442;153.014;2022-11-20T13:12:19;100464.31;;;28.34
64916;BMP280;51427;-27.442;153.014;2022-11-20T13:20:19;100456.00;;;28.68
64916;BMP280;51427;-27.442;153.014;2022-11-20T13:22:50;100459.78;;;28.85
64916;BMP280;51427;-27.442;153.014;2022-11-20T13:25:33;100463.16;;;28.98
64916;BMP280;51427;-27.442;153.014;2022-11-20T13:28:26;100445.22;;;28.81
64916;BMP280;51427;-27.442;153.014;2022-11-20T13:30:53;100446.81;;;28.51
64916;BMP280;51427;-27.442;153.014;2022-11-20T13:33:29;100434.78;;;28.30
64916;BMP280;51427;-27.442;153.014;2022-11-20T13:35:59;100431.31;;;27.60
64916;BMP280;51427;-27.442;153.014;2022-11-20T13:38:27;100433.75;;;27.10
64916;BMP280;51427;-27.442;153.014;2022-11-20T13:41:00;100433.13;;;27.08
64916;BMP280;51427;-27.442;153.014;2022-11-20T13:43:51;100430.69;;;27.32
64916;BMP280;51427;-27.442;153.014;2022-11-20T13:46:18;100426.56;;;27.81
64916;BMP280;51427;-27.442;153.014;2022-11-20T13:48:51;100417.91;;;27.92
64916;BMP280;51427;-27.442;153.014;2022-11-20T13:51:57;100432.88;;;27.93
64916;BMP280;51427;-27.442;153.014;2022-11-20T14:00:14;100432.94;;;27.35
64916;BMP280;51427;-27.442;153.014;2022-11-20T14:02:42;100429.63;;;27.78
64916;BMP280;51427;-27.442;153.014;2022-11-20T14:05:23;100426.59;;;27.30
64916;BMP280;51427;-27.442;153.014;2022-11-20T14:07:51;100425.28;;;26.61
64916;BMP280;51427;-27.442;153.014;2022-11-20T14:10:25;100421.78;;;26.67
64916;BMP280;51427;-27.442;153.014;2022-11-20T14:12:53;100405.28;;;27.30
64916;BMP280;51427;-27.442;153.014;2022-11-20T14:15:38;100402.84;;;28.23
64916;BMP280;51427;-27.442;153.014;2022-11-20T14:18:21;100388.56;;;28.11
64916;BMP280;51427;-27.442;153.014;2022-11-20T14:20:48;100390.25;;;27.86
64916;BMP280;51427;-27.442;153.014;2022-11-20T14:23:27;100394.47;;;27.50
64916;BMP280;51427;-27.442;153.014;2022-11-20T14:25:55;100384.41;;;27.59
64916;BMP280;51427;-27.442;153.014;2022-11-20T14:28:29;100379.31;;;27.12
64916;BMP280;51427;-27.442;153.014;2022-11-20T14:30:57;100385.78;;;27.81
64916;BMP280;51427;-27.442;153.014;2022-11-20T14:33:26;100385.03;;;27.54
64916;BMP280;51427;-27.442;153.014;2022-11-20T14:35:57;100378.47;;;27.63
64916;BMP280;51427;-27.442;153.014;2022-11-20T14:38:27;100375.97;;;27.75
64916;BMP280;51427;-27.442;153.014;2022-11-20T14:41:07;100371.06;;;27.65
64916;BMP280;51427;-27.442;153.014;2022-11-20T14:43:34;100372.25;;;27.82
64916;BMP280;51427;-27.442;153.014;2022-11-20T14:46:07;100369.66;;;28.26
64916;BMP280;51427;-27.442;153.014;2022-11-20T14:51:38;100359.41;;;28.23
64916;BMP280;51427;-27.442;153.014;2022-11-20T14:54:19;100365.09;;;27.83
64916;BMP280;51427;-27.442;153.014;2022-11-20T14:57:00;100358.94;;;27.82
64916;BMP280;51427;-27.442;153.014;2022-11-20T14:59:30;100356.41;;;28.00
64916;BMP280;51427;-27.442;153.014;2022-11-20T15:02:06;100343.50;;;28.10
64916;BMP280;51427;-27.442;153.014;2022-11-20T15:05:05;100345.41;;;28.64
64916;BMP280;51427;-27.442;153.014;2022-11-20T15:07:35;100346.91;;;28.23
64916;BMP280;51427;-27.442;153.014;2022-11-20T15:10:08;100345.44;;;27.77
64916;BMP280;51427;-27.442;153.014;2022-11-20T15:12:49;100340.16;;;28.21
64916;BMP280;51427;-27.442;153.014;2022-11-20T15:15:33;100338.38;;;27.52
64916;BMP280;51427;-27.442;153.014;2022-11-20T15:18:02;100327.59;;;27.84
64916;BMP280;51427;-27.442;153.014;2022-11-20T15:20:32;100329.31;;;28.16
64916;BMP280;51427;-27.442;153.014;2022-11-20T15:23:00;100320.38;;;27.91
64916;BMP280;51427;-27.442;153.014;2022-11-20T15:25:27;100317.66;;;27.60
64916;BMP280;51427;-27.442;153.014;2022-11-20T15:27:57;100317.88;;;27.52
64916;BMP280;51427;-27.442;153.014;2022-11-20T15:30:25;100326.25;;;27.56